Wingate, Pennsylvania
Current Conditions -  °F | °C
As of 6:53 PM on Tuesday 25 Nov 2014 (Local Time) from KUNV Reporting Station
Clear Clear  
Wind Chill: 36°   Ceiling: Unl
Heat Index: 41°   Visibility: 10mi
Dew Point: 28°   Wind: 7mph
Humidity: 61%   Direction: 250°WSW
Pressure: 30.09"   Gusts: NA
Location:  40.9455°N, 77.7398°W
Report Text: KUNV 252353Z 25006KT 10SM SKC 05/M02 A3009
Loading
Personal Weather Stations






























Interactive Weather Map New forecast layout! Learn more

10-Day Weather Forecast

Advertisements
Track Severe Weather on mobile